Time;durP1;ratioP1;P1;durP2;ratioP2;P2;SDS_P1;SDS_P2;PMS_P1;PMS_P2;Temp;Humidity;BMP_temperature;BMP_pressure;BME280_temperature;BME280_humidity;BME280_pressure;Samples;Min_cycle;Max_cycle;Signal;HPM_P1;HPM_P2
2021/12/29 00:01:42;;;;;;;70.30;44.60;;;;;;;9.50;70.77;93858.53;5086042;28;20185;-78
2021/12/29 00:04:08;;;;;;;74.77;43.37;;;;;;;9.84;68.17;93863.63;5089052;28;20189;-77
2021/12/29 00:06:34;;;;;;;64.97;44.00;;;;;;;9.53;69.34;93873.81;5088885;28;20238;-77
2021/12/29 00:08:59;;;;;;;73.40;46.37;;;;;;;9.50;69.97;93871.59;5107641;28;20201;-77
2021/12/29 00:11:26;;;;;;;69.83;44.67;;;;;;;9.54;70.45;93872.00;5107959;28;20188;-78
2021/12/29 00:13:52;;;;;;;69.40;46.07;;;;;;;9.50;69.65;93887.28;5127226;28;20219;-78
2021/12/29 00:16:17;;;;;;;78.87;44.13;;;;;;;9.52;69.55;93877.44;5110598;28;20413;-78
2021/12/29 00:18:44;;;;;;;76.37;47.50;;;;;;;9.64;69.81;93863.75;5112538;28;20176;-78
2021/12/29 00:21:10;;;;;;;72.57;45.97;;;;;;;9.62;68.96;93861.34;5119659;28;20663;-78
2021/12/29 00:23:36;;;;;;;65.77;41.73;;;;;;;9.31;69.30;93851.59;5089287;28;20423;-76
2021/12/29 00:26:03;;;;;;;74.17;45.20;;;;;;;9.46;69.17;93836.47;5070890;28;20436;-76
2021/12/29 00:28:28;;;;;;;70.57;46.03;;;;;;;9.26;69.31;93840.97;5088669;28;20275;-77
2021/12/29 00:30:54;;;;;;;82.20;46.83;;;;;;;9.27;69.89;93848.59;5088778;28;20431;-77
2021/12/29 00:33:19;;;;;;;65.20;44.00;;;;;;;9.29;69.25;93853.59;5070504;28;20174;-78
2021/12/29 00:35:46;;;;;;;73.57;46.80;;;;;;;8.95;70.97;93855.50;5088506;28;20178;-77
2021/12/29 00:38:12;;;;;;;68.93;46.17;;;;;;;8.99;70.59;93857.50;5088150;28;20189;-77
2021/12/29 00:40:39;;;;;;;64.63;44.80;;;;;;;9.21;68.59;93854.63;5109049;28;20431;-78
2021/12/29 00:43:05;;;;;;;56.63;39.70;;;;;;;9.30;68.94;93847.41;5086668;28;20181;-79
2021/12/29 00:45:34;;;;;;;63.33;42.03;;;;;;;9.00;68.83;93853.09;5091660;28;20437;-79
2021/12/29 00:48:00;;;;;;;57.03;42.07;;;;;;;9.23;68.83;93847.41;5108650;28;20450;-77
2021/12/29 00:50:26;;;;;;;57.33;40.23;;;;;;;9.31;68.42;93852.38;5107600;28;20439;-79
2021/12/29 00:52:52;;;;;;;60.23;40.77;;;;;;;9.42;67.56;93864.00;5108939;28;20723;-78
2021/12/29 00:55:17;;;;;;;58.57;39.20;;;;;;;9.45;68.29;93861.00;5107763;28;20219;-78
2021/12/29 00:57:44;;;;;;;57.30;41.60;;;;;;;9.72;67.40;93866.09;5106861;28;20188;-79
2021/12/29 01:00:14;;;;;;;55.40;39.20;;;;;;;9.36;68.05;93857.81;5108076;28;20439;-78
2021/12/29 01:02:40;;;;;;;48.07;36.10;;;;;;;9.53;66.00;93858.16;5108527;28;20404;-77
2021/12/29 01:05:09;;;;;;;42.67;33.87;;;;;;;8.63;67.61;93847.50;5093622;28;20431;-78
2021/12/29 01:07:35;;;;;;;46.83;34.00;;;;;;;8.43;69.93;93849.34;5104626;28;20489;-78
2021/12/29 01:10:03;;;;;;;43.20;32.60;;;;;;;8.16;70.45;93846.69;5103108;28;20430;-78
2021/12/29 01:12:29;;;;;;;47.53;33.37;;;;;;;8.96;68.47;93846.69;5089069;28;20462;-78
2021/12/29 01:14:56;;;;;;;40.47;30.50;;;;;;;9.09;67.44;93846.66;5085285;28;20438;-77
2021/12/29 01:17:23;;;;;;;43.43;31.70;;;;;;;9.25;67.56;93839.38;5107034;28;20203;-78
2021/12/29 01:19:53;;;;;;;39.33;30.67;;;;;;;9.40;67.55;93836.50;5103831;28;20434;-77
2021/12/29 01:22:19;;;;;;;45.90;32.50;;;;;;;9.43;67.09;93833.47;5104524;28;20403;-78
2021/12/29 01:24:46;;;;;;;40.60;29.83;;;;;;;9.38;67.06;93828.88;5103406;28;20500;-78
2021/12/29 01:27:12;;;;;;;54.77;29.57;;;;;;;9.41;68.02;93832.88;5105997;28;20841;-78
2021/12/29 01:29:38;;;;;;;38.53;31.60;;;;;;;9.82;66.42;93829.06;5100439;28;21017;-79
2021/12/29 01:32:03;;;;;;;41.77;31.83;;;;;;;9.26;67.52;93826.13;5106182;28;20449;-78
2021/12/29 01:34:29;;;;;;;42.40;31.30;;;;;;;9.41;67.66;93820.66;5085771;28;20197;-78
2021/12/29 01:36:54;;;;;;;41.17;28.17;;;;;;;9.48;67.41;93816.16;5105839;28;20200;-78
2021/12/29 01:39:22;;;;;;;39.67;29.47;;;;;;;9.75;66.35;93818.66;5105967;28;20201;-79
2021/12/29 01:41:51;;;;;;;45.30;31.87;;;;;;;9.53;67.40;93810.34;5103165;28;20612;-78
2021/12/29 01:44:18;;;;;;;47.83;31.73;;;;;;;9.47;67.87;93819.81;5106753;28;20434;-78
2021/12/29 01:46:45;;;;;;;44.10;30.40;;;;;;;9.62;66.97;93808.28;5106663;28;20526;-78
2021/12/29 01:49:12;;;;;;;39.40;30.20;;;;;;;9.74;67.20;93812.63;5106639;28;20453;-78
2021/12/29 01:51:47;;;;;;;44.90;31.10;;;;;;;9.90;66.99;93805.31;5105781;28;20415;-79
2021/12/29 01:54:23;;;;;;;39.00;29.83;;;;;;;9.92;66.80;93803.28;5106263;28;20434;-78
2021/12/29 01:56:56;;;;;;;37.30;27.90;;;;;;;10.06;65.17;93799.56;5088146;28;20430;-78
2021/12/29 01:59:22;;;;;;;39.97;29.07;;;;;;;9.96;65.36;93794.81;5107047;28;20427;-78
2021/12/29 02:01:48;;;;;;;41.10;30.13;;;;;;;9.99;65.91;93790.97;5095516;28;20794;-78
2021/12/29 02:04:14;;;;;;;37.47;28.10;;;;;;;9.92;65.98;93779.75;5095962;28;20443;-78
2021/12/29 02:06:40;;;;;;;38.80;29.20;;;;;;;9.82;66.49;93780.22;5105847;28;20177;-78
2021/12/29 02:09:07;;;;;;;36.93;29.90;;;;;;;9.88;65.97;93782.00;5105611;28;20470;-78
2021/12/29 02:11:34;;;;;;;40.73;30.10;;;;;;;9.87;65.97;93783.00;5087133;28;20228;-77
2021/12/29 02:14:02;;;;;;;35.50;27.20;;;;;;;9.96;66.20;93771.28;5105151;28;20432;-79
2021/12/29 02:16:28;;;;;;;39.07;29.23;;;;;;;9.91;65.65;93768.50;5087502;28;20423;-78
2021/12/29 02:18:55;;;;;;;37.43;27.47;;;;;;;10.39;64.49;93755.91;5104608;28;20439;-79
2021/12/29 02:21:23;;;;;;;35.77;27.87;;;;;;;10.54;63.18;93744.06;5086992;28;20434;-78
2021/12/29 02:26:31;;;;;;;40.47;29.73;;;;;;;10.01;64.67;93747.13;5103504;28;20496;-78
2021/12/29 02:28:56;;;;;;;40.70;28.50;;;;;;;10.21;64.35;93744.38;5105113;28;20857;-78
2021/12/29 02:31:23;;;;;;;39.40;30.03;;;;;;;9.79;65.63;93746.69;5105092;28;20413;-78
2021/12/29 02:33:51;;;;;;;36.20;27.33;;;;;;;9.92;65.78;93744.00;5104577;28;20196;-77
2021/12/29 02:36:21;;;;;;;42.80;27.97;;;;;;;9.86;65.42;93742.22;5086499;28;20423;-77
2021/12/29 02:38:51;;;;;;;34.77;26.83;;;;;;;9.70;66.15;93742.75;5084309;28;20447;-78
2021/12/29 02:41:17;;;;;;;29.00;22.93;;;;;;;9.39;67.54;93741.72;5084619;28;20414;-78
2021/12/29 02:43:44;;;;;;;32.03;22.40;;;;;;;9.42;65.92;93743.91;5084901;28;20427;-78
2021/12/29 02:46:13;;;;;;;27.37;22.37;;;;;;;9.31;67.35;93736.72;5084943;28;20416;-78
2021/12/29 02:48:44;;;;;;;32.90;22.80;;;;;;;9.18;68.08;93741.00;5101786;28;20474;-77
2021/12/29 02:51:09;;;;;;;31.00;23.23;;;;;;;9.19;68.08;93740.00;5104964;28;20509;-77
2021/12/29 02:53:36;;;;;;;33.53;24.17;;;;;;;9.43;66.54;93742.06;5086595;28;20945;-78
2021/12/29 02:56:03;;;;;;;31.00;22.83;;;;;;;9.56;66.88;93739.38;5104411;28;20185;-78
2021/12/29 02:58:29;;;;;;;27.20;21.63;;;;;;;9.64;66.86;93738.38;5086874;28;20503;-79
2021/12/29 03:00:56;;;;;;;24.93;20.30;;;;;;;9.68;66.39;93742.16;5104211;28;20917;-79
2021/12/29 03:03:27;;;;;;;28.77;22.13;;;;;;;9.81;66.60;93736.84;5091996;28;20181;-79
2021/12/29 03:05:53;;;;;;;28.57;20.57;;;;;;;9.89;65.84;93733.97;5103236;28;20431;-78
2021/12/29 03:08:21;;;;;;;27.90;21.93;;;;;;;10.06;65.23;93736.06;5104948;28;20632;-78
2021/12/29 03:10:52;;;;;;;37.53;20.50;;;;;;;10.26;64.34;93736.69;5104687;28;20447;-78
2021/12/29 03:13:19;;;;;;;28.53;21.03;;;;;;;9.99;65.04;93737.91;5104490;28;20454;-78
2021/12/29 03:15:44;;;;;;;25.87;19.77;;;;;;;9.73;65.97;93734.47;5066385;28;20431;-78
2021/12/29 03:18:10;;;;;;;33.20;22.83;;;;;;;9.68;66.46;93734.31;5084169;28;20438;-78
2021/12/29 03:20:35;;;;;;;33.23;22.70;;;;;;;9.82;66.01;93730.59;5084265;28;20420;-78
2021/12/29 03:23:01;;;;;;;30.73;23.93;;;;;;;9.62;66.27;93724.69;5084339;28;20178;-79
2021/12/29 03:25:27;;;;;;;32.77;23.10;;;;;;;9.83;66.04;93716.53;5078765;28;20204;-78
2021/12/29 03:27:58;;;;;;;34.00;22.80;;;;;;;10.11;65.32;93717.91;5076630;28;20270;-78
2021/12/29 03:30:31;;;;;;;34.73;25.03;;;;;;;10.05;64.73;93714.31;5086150;28;20189;-77
2021/12/29 03:33:03;;;;;;;38.03;25.90;;;;;;;10.02;64.98;93716.59;5104136;28;20388;-80
2021/12/29 03:35:33;;;;;;;32.30;23.97;;;;;;;10.08;65.22;93719.13;5086452;28;20435;-78
2021/12/29 03:38:01;;;;;;;30.70;22.87;;;;;;;9.80;66.62;93711.72;5106462;28;20395;-79
2021/12/29 03:40:27;;;;;;;36.40;27.50;;;;;;;9.73;66.75;93721.41;5089848;28;20443;-77
2021/12/29 03:42:53;;;;;;;36.77;28.27;;;;;;;9.71;67.38;93715.59;5089491;28;20418;-78
2021/12/29 03:45:18;;;;;;;42.37;30.43;;;;;;;9.99;66.58;93714.38;5108066;28;20430;-78
2021/12/29 03:47:44;;;;;;;42.67;30.23;;;;;;;9.97;66.11;93702.31;5107846;28;20454;-78
2021/12/29 03:50:10;;;;;;;41.53;28.40;;;;;;;10.00;66.02;93705.53;5115185;28;20219;-77
2021/12/29 03:52:35;;;;;;;38.80;28.50;;;;;;;10.19;65.93;93707.19;5087117;28;20636;-77
2021/12/29 03:55:00;;;;;;;43.37;28.93;;;;;;;10.50;63.90;93702.88;5089469;28;20198;-78
2021/12/29 03:57:26;;;;;;;35.43;28.23;;;;;;;10.04;65.42;93701.50;5087293;28;20230;-77
2021/12/29 03:59:52;;;;;;;39.63;28.40;;;;;;;9.70;66.49;93700.94;5087702;28;20177;-77
2021/12/29 04:02:17;;;;;;;30.73;26.07;;;;;;;9.85;66.74;93696.19;5102879;28;20854;-80
2021/12/29 04:04:43;;;;;;;42.40;29.23;;;;;;;9.84;65.85;93694.59;5107460;28;20189;-78
2021/12/29 04:07:08;;;;;;;43.63;29.17;;;;;;;9.91;65.79;93692.72;5107671;28;20208;-78
2021/12/29 04:09:34;;;;;;;37.37;29.70;;;;;;;9.94;66.06;93694.94;5107999;28;20208;-78
2021/12/29 04:11:59;;;;;;;42.67;30.47;;;;;;;9.93;66.30;93701.16;5108079;28;20220;-79
2021/12/29 04:14:26;;;;;;;42.90;30.97;;;;;;;9.80;66.75;93703.88;5099096;28;20193;-78
2021/12/29 04:16:53;;;;;;;37.13;27.73;;;;;;;9.69;67.18;93694.09;5096486;28;20205;-77
2021/12/29 04:19:29;;;;;;;35.27;27.83;;;;;;;9.89;65.82;93689.53;5085835;28;20767;-78
2021/12/29 04:21:56;;;;;;;39.40;26.10;;;;;;;10.19;65.20;93691.50;5087346;28;20428;-78
2021/12/29 04:24:22;;;;;;;40.40;27.43;;;;;;;10.19;64.76;93694.09;5087372;28;20422;-78
2021/12/29 04:26:48;;;;;;;38.93;26.30;;;;;;;10.30;64.73;93685.59;5087240;28;20427;-77
2021/12/29 04:29:13;;;;;;;35.03;25.73;;;;;;;10.02;65.53;93696.47;5086970;28;20216;-77
2021/12/29 04:31:40;;;;;;;32.73;24.77;;;;;;;10.08;65.20;93698.22;5098604;28;20200;-77
2021/12/29 04:34:06;;;;;;;36.20;25.23;;;;;;;10.07;65.57;93695.81;5107426;28;20435;-77
2021/12/29 04:36:32;;;;;;;30.50;22.97;;;;;;;9.75;66.61;93695.84;5107277;28;20407;-76
2021/12/29 04:38:58;;;;;;;32.77;25.03;;;;;;;9.83;66.02;93698.22;5107709;28;20502;-77
2021/12/29 04:41:25;;;;;;;26.90;21.80;;;;;;;9.93;65.48;93698.53;5107861;28;20423;-78
2021/12/29 04:43:51;;;;;;;26.30;19.37;;;;;;;9.84;66.22;93696.41;5097280;28;20205;-77
2021/12/29 04:46:19;;;;;;;23.33;19.20;;;;;;;9.95;65.99;93709.56;5107162;28;20933;-77
2021/12/29 04:48:51;;;;;;;27.90;20.87;;;;;;;10.24;64.57;93712.53;5105771;28;20896;-78
2021/12/29 04:51:24;;;;;;;28.80;20.60;;;;;;;10.05;64.88;93709.09;5107935;28;20392;-78
2021/12/29 04:53:50;;;;;;;22.57;18.50;;;;;;;10.10;64.54;93711.09;5107510;28;20434;-77
2021/12/29 04:56:16;;;;;;;25.20;19.57;;;;;;;9.72;65.80;93710.16;5088394;28;20407;-78
2021/12/29 04:58:42;;;;;;;26.97;20.30;;;;;;;9.73;66.35;93706.53;5087472;28;20439;-78
2021/12/29 05:01:08;;;;;;;32.30;20.80;;;;;;;9.69;66.03;93712.38;5085876;28;20934;-78
2021/12/29 05:03:36;;;;;;;31.97;22.30;;;;;;;9.95;65.84;93714.81;5103168;28;20399;-79
2021/12/29 05:08:48;;;;;;;27.17;21.33;;;;;;;10.05;65.39;93708.28;5062786;28;20468;-77
2021/12/29 05:11:15;;;;;;;23.27;20.70;;;;;;;10.16;64.98;93710.22;5100919;28;20427;-78
2021/12/29 05:13:44;;;;;;;29.70;23.30;;;;;;;10.21;65.60;93718.22;5106618;28;20165;-78
2021/12/29 05:16:10;;;;;;;32.47;24.67;;;;;;;10.27;65.41;93717.34;5088647;28;20514;-78
2021/12/29 05:18:37;;;;;;;37.70;26.93;;;;;;;10.08;65.69;93720.94;5106489;28;20758;-78
2021/12/29 05:21:05;;;;;;;28.57;24.73;;;;;;;10.31;65.18;93723.00;5074025;28;21130;-78
2021/12/29 05:23:31;;;;;;;33.23;25.10;;;;;;;10.16;65.67;93723.28;5086146;28;20427;-79
2021/12/29 05:25:56;;;;;;;29.13;24.00;;;;;;;10.27;65.61;93724.41;5086305;28;20428;-78
2021/12/29 05:28:24;;;;;;;31.53;24.00;;;;;;;10.29;65.06;93723.16;5086118;28;20261;-78
2021/12/29 05:30:51;;;;;;;30.93;24.20;;;;;;;10.42;65.00;93719.66;5078476;28;20245;-78
2021/12/29 05:33:16;;;;;;;33.30;24.60;;;;;;;10.54;64.65;93722.34;5078718;28;20424;-77
2021/12/29 05:35:42;;;;;;;31.80;24.20;;;;;;;10.49;65.15;93723.03;5085886;28;20431;-79
2021/12/29 05:38:08;;;;;;;29.93;23.60;;;;;;;10.89;63.29;93719.97;5086132;28;20247;-78
2021/12/29 05:40:34;;;;;;;32.70;23.13;;;;;;;10.53;64.35;93726.00;5083483;28;20439;-78
2021/12/29 05:42:59;;;;;;;33.60;24.20;;;;;;;10.51;64.86;93720.19;5065454;28;20183;-78
2021/12/29 05:45:27;;;;;;;34.57;25.07;;;;;;;10.49;64.86;93719.59;5091406;28;20185;-78
2021/12/29 05:47:53;;;;;;;31.40;23.63;;;;;;;10.57;65.44;93718.50;5087669;28;20259;-78
2021/12/29 05:50:21;;;;;;;30.00;23.67;;;;;;;10.62;65.42;93719.44;5105886;28;20426;-78
2021/12/29 05:52:48;;;;;;;33.27;24.53;;;;;;;10.72;65.09;93719.75;5106441;28;20475;-79
2021/12/29 05:55:13;;;;;;;43.30;27.77;;;;;;;10.69;65.00;93719.41;5097240;28;20418;-78
2021/12/29 05:57:40;;;;;;;34.27;25.13;;;;;;;10.76;64.74;93725.38;5078033;28;20437;-78
2021/12/29 06:00:09;;;;;;;39.30;29.33;;;;;;;10.82;65.02;93726.31;5105437;28;20204;-79
2021/12/29 06:02:34;;;;;;;37.13;27.60;;;;;;;10.80;64.79;93729.13;5100620;28;21042;-77
2021/12/29 06:05:00;;;;;;;40.27;28.17;;;;;;;10.85;64.75;93731.09;5084330;28;20431;-77
2021/12/29 06:07:25;;;;;;;32.87;25.20;;;;;;;11.01;63.91;93722.66;5083509;28;20261;-77
2021/12/29 06:09:51;;;;;;;35.53;26.50;;;;;;;11.05;63.90;93720.41;5065249;28;20193;-77
2021/12/29 06:12:16;;;;;;;39.00;26.63;;;;;;;10.72;65.52;93719.75;5061474;28;20218;-79
2021/12/29 06:14:44;;;;;;;43.90;26.47;;;;;;;10.67;65.13;93726.66;5072690;28;20194;-78
2021/12/29 06:17:11;;;;;;;40.33;26.77;;;;;;;10.80;64.78;93725.72;5065932;28;20193;-78
2021/12/29 06:19:36;;;;;;;42.97;27.70;;;;;;;10.71;64.84;93726.00;5084814;28;20444;-78
2021/12/29 06:22:03;;;;;;;37.87;25.20;;;;;;;10.42;65.35;93729.34;5084514;28;20411;-77
2021/12/29 06:24:29;;;;;;;34.57;25.03;;;;;;;10.28;66.47;93737.28;5066828;28;20190;-77
2021/12/29 06:26:54;;;;;;;34.60;23.97;;;;;;;10.53;65.73;93742.50;5076791;28;20449;-78
2021/12/29 06:29:20;;;;;;;36.20;24.73;;;;;;;10.31;66.80;93739.47;5066436;28;20197;-77
2021/12/29 06:31:47;;;;;;;35.20;26.13;;;;;;;10.73;65.11;93739.66;5083944;28;20182;-78
2021/12/29 06:34:13;;;;;;;36.57;25.40;;;;;;;10.79;65.35;93750.28;5088441;28;20215;-78
2021/12/29 06:36:40;;;;;;;37.97;25.10;;;;;;;10.76;65.10;93746.28;5100611;28;20426;-78
2021/12/29 06:39:06;;;;;;;40.70;26.47;;;;;;;10.78;65.45;93751.31;5063768;28;20175;-79
2021/12/29 06:41:32;;;;;;;34.87;24.00;;;;;;;10.89;65.26;93747.97;5063799;28;20417;-78
2021/12/29 06:43:57;;;;;;;37.13;25.63;;;;;;;10.78;65.75;93748.69;5046553;28;20443;-78
2021/12/29 06:46:22;;;;;;;34.63;25.83;;;;;;;10.86;65.75;93749.19;5065802;28;20261;-78
2021/12/29 06:48:48;;;;;;;47.63;27.87;;;;;;;10.96;65.60;93746.06;5084976;28;20205;-79
2021/12/29 06:51:14;;;;;;;39.50;28.23;;;;;;;10.88;65.97;93754.22;5085014;28;20184;-79
2021/12/29 06:53:39;;;;;;;40.80;28.90;;;;;;;11.06;65.36;93751.59;5084747;28;20940;-79
2021/12/29 06:56:06;;;;;;;46.33;29.40;;;;;;;11.09;65.02;93761.63;5084917;28;20180;-79
2021/12/29 06:58:32;;;;;;;40.00;27.73;;;;;;;10.88;64.94;93760.25;5068686;28;20293;-78
2021/12/29 07:00:58;;;;;;;39.87;27.80;;;;;;;10.31;66.74;93760.38;5080491;28;20434;-78
2021/12/29 07:03:25;;;;;;;37.80;26.80;;;;;;;10.02;68.37;93759.19;5104638;28;20904;-79
2021/12/29 07:05:53;;;;;;;45.67;32.30;;;;;;;10.30;67.04;93758.81;5104529;28;20254;-78
2021/12/29 07:08:18;;;;;;;44.50;32.43;;;;;;;10.38;67.17;93762.13;5104620;28;20525;-77
2021/12/29 07:10:45;;;;;;;46.33;30.90;;;;;;;10.60;66.18;93771.19;5093360;28;20559;-77
2021/12/29 07:13:10;;;;;;;42.20;31.10;;;;;;;10.60;66.09;93771.19;5071767;28;20230;-78
2021/12/29 07:15:36;;;;;;;43.33;29.67;;;;;;;10.74;65.51;93775.28;5062126;28;20561;-78
2021/12/29 07:18:02;;;;;;;35.37;26.40;;;;;;;10.72;64.71;93768.69;5063922;28;20179;-78
2021/12/29 07:20:27;;;;;;;33.90;27.27;;;;;;;11.02;64.29;93771.38;5064379;28;20187;-79
2021/12/29 07:22:52;;;;;;;36.27;26.80;;;;;;;10.97;63.97;93771.25;5064365;28;20207;-78
2021/12/29 07:25:18;;;;;;;38.67;28.63;;;;;;;10.98;64.12;93775.44;5066673;28;20201;-79
2021/12/29 07:27:43;;;;;;;34.83;26.80;;;;;;;10.94;64.44;93775.06;5045355;28;20206;-78
2021/12/29 07:30:11;;;;;;;35.30;26.53;;;;;;;11.07;64.69;93779.38;5063961;28;20233;-79
2021/12/29 07:32:37;;;;;;;43.23;29.23;;;;;;;10.52;65.76;93782.72;5063998;28;20174;-79
2021/12/29 07:35:03;;;;;;;44.37;31.17;;;;;;;10.70;65.61;93778.56;5063763;28;20451;-77
2021/12/29 07:37:29;;;;;;;38.57;28.73;;;;;;;10.80;65.81;93778.06;5063654;28;20475;-78
2021/12/29 07:39:54;;;;;;;40.90;29.23;;;;;;;10.98;65.57;93778.06;5081313;28;20428;-78
2021/12/29 07:42:20;;;;;;;45.47;29.23;;;;;;;11.28;64.54;93779.94;5057438;28;20189;-78
2021/12/29 07:44:47;;;;;;;34.53;29.00;;;;;;;11.11;64.84;93777.91;5062395;28;20202;-78
2021/12/29 07:47:14;;;;;;;41.50;29.27;;;;;;;11.14;64.79;93774.88;5063730;28;20200;-78
2021/12/29 07:49:39;;;;;;;43.00;30.67;;;;;;;11.04;65.26;93774.59;5064023;28;20413;-78
2021/12/29 07:52:05;;;;;;;39.00;28.93;;;;;;;11.41;64.39;93771.91;5046954;28;20449;-78
2021/12/29 07:54:31;;;;;;;39.57;29.80;;;;;;;11.18;64.81;93784.91;5084169;28;20174;-79
2021/12/29 07:56:56;;;;;;;46.33;32.10;;;;;;;11.22;65.03;93772.97;5065814;28;20212;-78
2021/12/29 07:59:21;;;;;;;37.47;31.40;;;;;;;11.20;65.01;93764.53;5083971;28;20185;-78
2021/12/29 08:01:48;;;;;;;47.47;30.90;;;;;;;11.35;64.66;93775.44;5083796;28;20178;-78
2021/12/29 08:04:16;;;;;;;45.73;32.27;;;;;;;11.26;65.50;93771.50;5065113;28;20613;-79
2021/12/29 08:06:42;;;;;;;47.27;33.27;;;;;;;11.29;65.02;93776.31;5065414;28;20500;-79
2021/12/29 08:09:09;;;;;;;56.20;34.20;;;;;;;11.42;65.77;93765.69;5095632;28;20495;-78
2021/12/29 08:11:36;;;;;;;50.67;34.23;;;;;;;11.66;64.29;93777.03;5086933;28;20542;-79
2021/12/29 08:14:02;;;;;;;44.97;35.20;;;;;;;11.60;64.70;93771.91;5103435;28;20435;-79
2021/12/29 08:16:28;;;;;;;52.77;33.60;;;;;;;11.42;65.85;93770.91;5089879;28;20414;-78
2021/12/29 08:18:53;;;;;;;46.70;33.70;;;;;;;11.43;65.53;93771.72;5099863;28;20435;-78
2021/12/29 08:21:18;;;;;;;51.30;35.33;;;;;;;11.22;66.63;93783.44;5091134;28;20434;-78
2021/12/29 08:23:44;;;;;;;53.10;34.67;;;;;;;11.44;66.29;93768.06;5100556;28;20177;-77
2021/12/29 08:26:10;;;;;;;51.53;35.20;;;;;;;11.59;65.86;93775.53;5104145;28;20181;-78
2021/12/29 08:28:35;;;;;;;48.93;33.60;;;;;;;11.60;65.55;93770.06;5088255;28;20199;-78
2021/12/29 08:31:01;;;;;;;53.17;33.83;;;;;;;11.51;65.29;93774.84;5088645;28;20173;-78
2021/12/29 08:33:27;;;;;;;56.13;35.53;;;;;;;11.19;67.09;93776.03;5088702;28;20644;-78
2021/12/29 08:35:52;;;;;;;49.07;33.97;;;;;;;11.25;66.81;93775.13;5106981;28;20411;-78
2021/12/29 08:38:18;;;;;;;39.73;31.70;;;;;;;11.58;66.06;93768.69;5088662;28;20342;-78
2021/12/29 08:40:44;;;;;;;42.50;33.63;;;;;;;11.69;65.92;93770.56;5086065;28;20287;-76
2021/12/29 08:43:10;;;;;;;46.47;32.90;;;;;;;11.62;66.01;93769.84;5103065;28;20253;-78
2021/12/29 08:45:37;;;;;;;48.93;32.33;;;;;;;11.61;66.28;93769.06;5103711;28;20458;-78
2021/12/29 08:48:03;;;;;;;46.20;33.40;;;;;;;11.62;65.67;93775.88;5103316;28;20252;-78
2021/12/29 08:50:30;;;;;;;48.40;34.23;;;;;;;11.70;66.27;93777.38;5084743;28;20454;-78
2021/12/29 08:52:58;;;;;;;45.93;34.10;;;;;;;11.61;66.63;93771.69;5103181;28;20442;-78
2021/12/29 08:55:23;;;;;;;45.33;32.90;;;;;;;11.68;66.39;93769.75;5104488;28;20419;-78
2021/12/29 08:57:49;;;;;;;45.63;33.50;;;;;;;11.84;65.88;93763.09;5087672;28;20418;-78
2021/12/29 09:00:17;;;;;;;46.13;33.07;;;;;;;11.86;65.94;93770.75;5087370;28;20302;-79
2021/12/29 09:03:41;;;;;;;45.10;34.97;;;;;;;11.89;64.82;93760.63;5087470;28;20181;-79
2021/12/29 09:06:07;;;;;;;47.20;33.10;;;;;;;11.73;65.23;93761.22;5079711;28;20423;-78
2021/12/29 09:08:32;;;;;;;46.10;35.60;;;;;;;11.57;66.58;93757.41;5083007;28;20462;-77
2021/12/29 09:10:58;;;;;;;48.77;36.37;;;;;;;11.73;66.29;93756.00;5095901;28;20216;-77
2021/12/29 09:13:24;;;;;;;54.53;38.73;;;;;;;11.96;65.62;93754.50;5100901;28;21000;-78
2021/12/29 09:15:53;;;;;;;45.17;35.00;;;;;;;12.18;65.76;93747.69;5082955;28;20194;-78
2021/12/29 09:18:27;;;;;;;48.20;33.90;;;;;;;12.23;65.10;93741.75;5095432;28;20403;-78
2021/12/29 09:21:06;;;;;;;52.63;35.27;;;;;;;12.17;65.01;93734.78;5103468;28;20430;-77
2021/12/29 09:23:33;;;;;;;46.20;34.87;;;;;;;11.94;65.46;93732.94;5100183;28;20410;-78
2021/12/29 09:25:59;;;;;;;41.63;31.53;;;;;;;12.05;65.48;93738.19;5084391;28;20523;-77
2021/12/29 09:28:24;;;;;;;46.47;36.03;;;;;;;12.00;65.72;93724.16;5106412;28;20739;-77
2021/12/29 09:30:51;;;;;;;50.20;36.10;;;;;;;12.19;65.31;93723.03;5082348;28;20449;-76
2021/12/29 09:33:19;;;;;;;50.70;36.00;;;;;;;12.02;65.07;93716.88;5105302;28;20185;-77
2021/12/29 09:35:49;;;;;;;43.90;33.80;;;;;;;12.23;64.90;93711.06;5099813;28;20428;-77
2021/12/29 09:38:17;;;;;;;47.57;34.90;;;;;;;12.19;64.69;93714.38;5088443;28;20423;-77
2021/12/29 09:40:44;;;;;;;48.30;35.73;;;;;;;12.49;64.67;93712.44;5097157;28;20506;-76
2021/12/29 09:43:12;;;;;;;48.33;33.60;;;;;;;12.23;65.60;93713.69;5087128;28;20437;-78
2021/12/29 09:45:39;;;;;;;37.83;29.40;;;;;;;12.55;64.58;93710.72;5102369;28;20423;-78
2021/12/29 09:48:05;;;;;;;65.27;34.00;;;;;;;12.70;64.40;93713.69;5082227;28;20466;-78
2021/12/29 09:50:31;;;;;;;48.87;31.80;;;;;;;12.80;62.84;93707.84;5098567;28;20891;-78
2021/12/29 09:52:58;;;;;;;44.83;29.10;;;;;;;12.41;64.94;93701.50;5081404;28;20181;-77
2021/12/29 09:55:25;;;;;;;40.27;27.23;;;;;;;12.38;64.70;93704.59;5084496;28;20430;-75
2021/12/29 09:57:54;;;;;;;47.60;28.97;;;;;;;12.49;64.49;93699.31;5101722;28;20404;-78
2021/12/29 10:00:51;;;;;;;40.93;25.97;;;;;;;12.76;64.41;93700.66;5102823;28;20442;-77
2021/12/29 10:03:19;;;;;;;37.90;28.50;;;;;;;12.74;64.13;93697.47;5103586;28;20415;-76
2021/12/29 10:05:49;;;;;;;42.93;29.70;;;;;;;12.64;64.37;93690.19;5104791;28;20423;-79
2021/12/29 10:08:19;;;;;;;46.27;30.27;;;;;;;12.58;65.21;93689.28;5105477;28;20450;-79
2021/12/29 10:10:50;;;;;;;47.97;32.20;;;;;;;12.76;64.94;93684.91;5104633;28;20429;-79
2021/12/29 10:13:16;;;;;;;39.63;29.30;;;;;;;12.90;64.32;93683.66;5085973;28;20473;-78
2021/12/29 10:15:54;;;;;;;43.57;32.43;;;;;;;12.87;63.73;93677.00;5072334;28;20993;-76
2021/12/29 10:18:27;;;;;;;45.73;31.27;;;;;;;12.44;64.72;93677.41;5081077;28;20424;-78
2021/12/29 10:21:04;;;;;;;43.33;32.30;;;;;;;12.82;64.45;93681.34;5103377;28;20465;-78
2021/12/29 10:23:54;;;;;;;45.03;30.83;;;;;;;12.82;64.45;93679.53;5074502;28;20431;-79
2021/12/29 10:26:26;;;;;;;40.80;28.80;;;;;;;12.56;65.73;93680.03;5069138;28;20467;-78
2021/12/29 10:29:00;;;;;;;41.90;31.40;;;;;;;12.66;64.64;93678.41;5064465;28;20832;-78
2021/12/29 10:31:46;;;;;;;46.10;34.80;;;;;;;11.91;67.51;93674.69;5060412;28;20423;-78
2021/12/29 10:34:21;;;;;;;61.00;44.57;;;;;;;12.26;66.61;93665.25;5085016;28;21019;-78
2021/12/29 10:36:46;;;;;;;75.77;50.93;;;;;;;12.00;67.27;93675.13;5069457;28;20411;-78
2021/12/29 10:39:30;;;;;;;76.07;52.53;;;;;;;12.09;66.87;93665.91;5072237;28;20428;-77
2021/12/29 10:42:06;;;;;;;75.40;54.97;;;;;;;11.92;66.73;93659.75;5093668;28;20513;-77
2021/12/29 10:44:42;;;;;;;84.63;58.20;;;;;;;11.73;67.75;93656.41;5063039;28;20473;-78
2021/12/29 10:47:17;;;;;;;94.50;60.47;;;;;;;12.11;66.07;93658.63;5068121;28;20419;-78
2021/12/29 10:49:59;;;;;;;90.80;58.97;;;;;;;11.75;67.84;93654.34;5093440;28;20441;-78
2021/12/29 10:53:01;;;;;;;87.70;57.67;;;;;;;12.04;66.94;93659.75;5077795;28;20567;-77
2021/12/29 10:55:34;;;;;;;89.30;59.67;;;;;;;12.26;66.92;93655.53;5044171;28;20436;-79
2021/12/29 10:58:16;;;;;;;93.70;60.90;;;;;;;12.02;66.92;93654.72;5068936;28;20428;-78
2021/12/29 11:01:13;;;;;;;96.00;65.87;;;;;;;11.95;67.86;93653.25;5052789;28;20401;-78
2021/12/29 11:03:46;;;;;;;107.53;70.20;;;;;;;12.19;67.15;93646.97;5058597;28;20443;-78
2021/12/29 11:06:15;;;;;;;100.47;63.63;;;;;;;12.01;66.68;93645.28;5078629;28;20452;-77
2021/12/29 11:08:49;;;;;;;94.27;61.57;;;;;;;12.03;67.38;93650.31;5068829;28;20539;-78
2021/12/29 11:11:16;;;;;;;107.43;69.63;;;;;;;12.45;66.66;93642.31;5068599;28;20442;-78
2021/12/29 11:13:43;;;;;;;110.00;71.57;;;;;;;12.52;65.86;93645.59;5071281;28;20473;-77
2021/12/29 11:16:09;;;;;;;104.83;64.90;;;;;;;12.53;65.59;93638.53;5063481;28;20428;-77
2021/12/29 11:18:51;;;;;;;102.33;66.67;;;;;;;12.68;65.74;93629.13;5064094;28;20412;-78
2021/12/29 11:21:25;;;;;;;93.90;65.47;;;;;;;12.50;66.16;93634.50;5079598;28;20190;-78
2021/12/29 11:23:51;;;;;;;95.80;60.70;;;;;;;11.84;67.48;93632.03;5064730;28;20416;-78
2021/12/29 11:26:27;;;;;;;98.00;64.70;;;;;;;12.78;65.24;93627.72;5083827;28;20432;-76
2021/12/29 11:28:53;;;;;;;111.53;68.03;;;;;;;12.19;66.72;93622.59;5083748;28;20450;-77